KMEH

Meacham Airport

Meacham, Oregon, USA
METAR KMEH 271156Z AUTO 00000KT 10SM CLR 01/M01 A3015 RMK AO2 SLP214 70002 T00111006 10072 20011 53002
Observed Flight Rules
May-27 @ 11:56 UTC (7 minutes ago) Visual Flight Rules
Visibility Clouds
10 miles
  • Clear skies
Temperatures Readings
Current 1°C / 34°F
Dewpoint -1°C / 30°F
Humidity 87%
Altimeter 30.15" Hg
Pressure 1021.4 hPa
Elevation 1136
METAR KMEH 271156Z AUTO 00000KT 10SM CLR 01/M01 A3015 RMK AO2 SLP214 70002 T00111006 10072 20011 53002
Observed Flight Rules
May-27 @ 11:56 UTC
(7 minutes ago)
VFR
Clouds
  • Clear skies
Temperature Dewpoint
1°C / 34°F -1°C / 30°F
Humidity Altimeter Pressure
87% 30.15" Hg 1021.4 hPa